Terminal Aerodrome Forecast
Issued by NWS Spokane, WA

Home | Current Version | Previous Version | Text Only | Print | Product List | Glossary On
Versions: 1 2 3 4 5 6 7 8 9 10 11 12 13 14 15 16 17 18 19 20 21 22 23 24 25 26
000
FTUS46 KOTX 050520
TAFEAT
TAF
KEAT 050520Z 0506/0606 31012KT P6SM FEW100 BKN150
     FM050900 31009KT P6SM SCT050 SCT100 BKN150
     FM051800 29016G24KT P6SM FEW100
     FM052300 30022G30KT P6SM FEW150
     FM060300 30012KT P6SM FEW100 SCT150=

USA.gov is the U.S. government's official web portal to all federal, state and local government web resources and services.